createdAt,value
2023-09-17T00:01:01.597Z,17.33
2023-09-17T00:02:05.311Z,17.25
2023-09-17T00:03:09.467Z,17.19
2023-09-17T00:04:12.464Z,16.95
2023-09-17T00:05:15.664Z,17.18
2023-09-17T00:06:18.816Z,17.06
2023-09-17T00:07:22.203Z,17.09
2023-09-17T00:08:25.271Z,17.05
2023-09-17T00:09:28.186Z,16.85
2023-09-17T00:10:31.647Z,16.72
2023-09-17T00:11:34.574Z,16.94
2023-09-17T00:12:37.884Z,16.61
2023-09-17T00:13:41.070Z,16.60
2023-09-17T00:14:44.395Z,16.75
2023-09-17T00:15:47.306Z,16.60
2023-09-17T00:16:50.524Z,16.56
2023-09-17T00:17:54.731Z,16.89
2023-09-17T00:18:58.792Z,16.91
2023-09-17T00:20:01.716Z,16.93
2023-09-17T00:21:07.473Z,16.86
2023-09-17T00:22:12.936Z,16.70
2023-09-17T00:23:16.338Z,17.05
2023-09-17T00:24:19.308Z,16.64
2023-09-17T00:25:22.366Z,17.08
2023-09-17T00:26:25.186Z,16.88
2023-09-17T00:27:28.422Z,16.87
2023-09-17T00:28:31.728Z,17.03
2023-09-17T00:29:34.773Z,17.11
2023-09-17T00:30:37.942Z,17.03
2023-09-17T00:31:40.674Z,17.04
2023-09-17T00:32:43.497Z,17.11
2023-09-17T00:33:46.893Z,17.07
2023-09-17T00:34:50.053Z,17.08
2023-09-17T00:35:53.096Z,17.15
2023-09-17T00:36:56.117Z,17.14
2023-09-17T00:37:59.075Z,17.11
2023-09-17T00:39:03.979Z,16.81
2023-09-17T00:40:07.698Z,17.11
2023-09-17T00:41:10.450Z,16.74
2023-09-17T00:42:13.524Z,17.13
2023-09-17T00:43:16.312Z,17.11
2023-09-17T00:44:19.589Z,17.10
2023-09-17T00:45:22.582Z,16.99
2023-09-17T00:46:26.102Z,17.09
2023-09-17T00:47:29.705Z,16.88
2023-09-17T00:48:33.016Z,17.12
2023-09-17T00:49:36.193Z,16.70
2023-09-17T00:50:40.716Z,17.11
2023-09-17T00:51:44.721Z,17.11
2023-09-17T00:52:47.464Z,17.15
2023-09-17T00:53:50.490Z,17.17
2023-09-17T00:54:55.523Z,17.02
2023-09-17T00:55:59.897Z,17.18
2023-09-17T00:57:04.231Z,17.06
2023-09-17T00:58:07.374Z,16.99
2023-09-17T00:59:11.690Z,17.06
2023-09-17T01:00:15.658Z,17.08
2023-09-17T01:01:21.376Z,17.10
2023-09-17T01:02:27.686Z,16.75
2023-09-17T01:03:32.311Z,17.12
2023-09-17T01:04:37.924Z,16.81
2023-09-17T01:05:44.610Z,17.03
2023-09-17T01:06:48.174Z,17.00
2023-09-17T01:07:51.346Z,16.77
2023-09-17T01:08:54.744Z,16.94
2023-09-17T01:09:57.841Z,16.91
2023-09-17T01:11:03.715Z,17.03
2023-09-17T01:12:07.592Z,17.05
2023-09-17T01:13:11.352Z,17.11
2023-09-17T01:14:16.894Z,17.14
2023-09-17T01:15:20.376Z,17.15
2023-09-17T01:16:25.040Z,17.13
2023-09-17T01:17:28.777Z,17.15
2023-09-17T01:18:31.826Z,16.79
2023-09-17T01:19:36.051Z,17.17
2023-09-17T01:20:51.829Z,17.17
2023-09-17T01:22:05.076Z,17.15
2023-09-17T01:23:22.881Z,17.15
2023-09-17T01:24:31.778Z,17.13
2023-09-17T01:25:55.740Z,17.16
2023-09-17T01:27:02.934Z,17.09
2023-09-17T01:28:08.127Z,17.12
2023-09-17T01:29:14.779Z,17.08
2023-09-17T01:30:17.540Z,17.08
2023-09-17T01:31:21.812Z,17.06
2023-09-17T01:32:25.621Z,16.95
2023-09-17T01:33:29.389Z,17.09
2023-09-17T01:34:34.251Z,17.09
2023-09-17T01:36:21.367Z,17.10
2023-09-17T01:37:37.774Z,16.88
2023-09-17T01:39:06.428Z,17.15
2023-09-17T01:40:15.591Z,16.86
2023-09-17T01:41:20.220Z,16.93
2023-09-17T01:42:24.622Z,16.73
2023-09-17T01:43:27.825Z,16.95
2023-09-17T01:44:31.785Z,17.00
2023-09-17T01:45:36.260Z,16.97
2023-09-17T01:46:42.286Z,17.03
2023-09-17T01:47:50.226Z,17.02
2023-09-17T01:48:54.614Z,16.99
2023-09-17T01:49:58.775Z,16.95
2023-09-17T01:51:02.055Z,16.95
2023-09-17T01:52:05.954Z,16.96
2023-09-17T01:53:09.598Z,17.00
2023-09-17T01:54:12.851Z,17.02
2023-09-17T01:55:16.520Z,17.05
2023-09-17T01:56:19.500Z,17.04
2023-09-17T01:57:22.412Z,17.12
2023-09-17T01:58:25.443Z,17.14
2023-09-17T01:59:28.417Z,17.16
2023-09-17T02:00:33.216Z,17.16
2023-09-17T02:01:36.306Z,17.15
2023-09-17T02:02:39.355Z,17.15
2023-09-17T02:03:42.531Z,17.12
2023-09-17T02:04:45.531Z,17.09
2023-09-17T02:05:48.301Z,17.14
2023-09-17T02:06:55.141Z,17.08
2023-09-17T02:07:58.030Z,17.08
2023-09-17T02:09:01.171Z,17.07
2023-09-17T02:10:04.392Z,17.08
2023-09-17T02:11:07.712Z,17.10
2023-09-17T02:12:11.002Z,17.14
2023-09-17T02:13:13.782Z,17.11
2023-09-17T02:14:17.867Z,17.13
2023-09-17T02:15:21.161Z,17.16
2023-09-17T02:16:24.501Z,17.16
2023-09-17T02:17:27.764Z,17.15
2023-09-17T02:18:31.035Z,17.15
2023-09-17T02:19:33.716Z,17.15
2023-09-17T02:20:40.548Z,17.16
2023-09-17T02:21:44.061Z,17.15
2023-09-17T02:22:47.024Z,16.86
2023-09-17T02:23:50.617Z,17.14
2023-09-17T02:24:53.883Z,17.18
2023-09-17T02:25:57.560Z,17.24
2023-09-17T02:27:00.756Z,17.07
2023-09-17T02:28:03.755Z,17.12
2023-09-17T02:29:07.770Z,17.01
2023-09-17T02:30:11.054Z,17.28
2023-09-17T02:31:14.867Z,17.25
2023-09-17T02:32:18.040Z,17.24
2023-09-17T02:33:20.774Z,17.25
2023-09-17T02:34:24.063Z,17.25
2023-09-17T02:35:26.816Z,17.00
2023-09-17T02:36:29.457Z,17.19
2023-09-17T02:37:32.335Z,17.23
2023-09-17T02:38:35.084Z,17.20
2023-09-17T02:39:38.313Z,17.19
2023-09-17T02:40:44.608Z,17.15
2023-09-17T02:41:47.551Z,17.22
2023-09-17T02:42:50.906Z,17.25
2023-09-17T02:43:54.297Z,17.27
2023-09-17T02:44:58.250Z,17.28
2023-09-17T02:46:01.457Z,17.25
2023-09-17T02:47:04.468Z,17.33
2023-09-17T02:48:07.560Z,17.33
2023-09-17T02:49:11.023Z,17.29
2023-09-17T02:50:14.188Z,17.31
2023-09-17T02:51:16.943Z,17.21
2023-09-17T02:52:19.715Z,17.41
2023-09-17T02:53:22.700Z,17.36
2023-09-17T02:54:25.647Z,17.43
2023-09-17T02:55:28.863Z,17.40
2023-09-17T02:56:31.776Z,17.37
2023-09-17T02:57:34.680Z,17.26
2023-09-17T02:58:39.593Z,17.44
2023-09-17T02:59:42.565Z,17.45
2023-09-17T03:00:46.073Z,17.46
2023-09-17T03:01:49.767Z,17.46
2023-09-17T03:02:55.952Z,17.49
2023-09-17T03:03:59.284Z,17.50
2023-09-17T03:05:02.206Z,17.50
2023-09-17T03:06:07.013Z,17.57
2023-09-17T03:07:11.439Z,17.58
2023-09-17T03:08:16.186Z,17.60
2023-09-17T03:09:21.184Z,17.60
2023-09-17T03:10:25.826Z,17.40
2023-09-17T03:11:29.961Z,17.27
2023-09-17T03:12:33.776Z,17.53
2023-09-17T03:13:37.673Z,17.52
2023-09-17T03:14:42.360Z,17.46
2023-09-17T03:15:45.877Z,17.53
2023-09-17T03:16:50.009Z,17.51
2023-09-17T03:17:53.388Z,17.51
2023-09-17T03:18:57.012Z,17.48
2023-09-17T03:19:59.860Z,17.48
2023-09-17T03:21:06.599Z,17.50
2023-09-17T03:22:09.867Z,17.45
2023-09-17T03:23:13.463Z,17.51
2023-09-17T03:24:18.016Z,17.54
2023-09-17T03:25:21.052Z,17.47
2023-09-17T03:26:25.844Z,17.57
2023-09-17T03:27:29.035Z,17.38
2023-09-17T03:28:33.720Z,17.55
2023-09-17T03:29:36.913Z,17.53
2023-09-17T03:30:40.634Z,17.54
2023-09-17T03:31:46.807Z,17.32
2023-09-17T03:33:03.555Z,17.51
2023-09-17T03:34:08.396Z,17.52
2023-09-17T03:35:11.143Z,17.52
2023-09-17T03:36:14.166Z,17.50
2023-09-17T03:37:17.274Z,17.49
2023-09-17T03:38:21.760Z,17.37
2023-09-17T03:39:25.299Z,17.49
2023-09-17T03:40:28.401Z,17.44
2023-09-17T03:41:31.180Z,17.41
2023-09-17T03:42:33.902Z,17.33
2023-09-17T03:43:37.798Z,17.27
2023-09-17T03:44:41.329Z,17.40
2023-09-17T03:45:44.281Z,17.44
2023-09-17T03:46:47.395Z,17.44
2023-09-17T03:47:50.506Z,17.37
2023-09-17T03:48:53.516Z,17.27
2023-09-17T03:49:56.232Z,17.44
2023-09-17T03:50:59.742Z,17.31
2023-09-17T03:52:05.979Z,17.41
2023-09-17T03:53:09.303Z,17.40
2023-09-17T03:54:12.662Z,17.40
2023-09-17T03:55:15.962Z,17.39
2023-09-17T03:56:19.678Z,17.40
2023-09-17T03:57:22.798Z,17.38
2023-09-17T03:58:25.607Z,17.38
2023-09-17T03:59:28.636Z,17.39
2023-09-17T04:00:31.355Z,17.39
2023-09-17T04:01:35.873Z,17.40
2023-09-17T04:02:39.571Z,17.40
2023-09-17T04:03:42.542Z,17.36
2023-09-17T04:04:45.403Z,17.35
2023-09-17T04:05:52.089Z,17.32
2023-09-17T04:06:55.378Z,17.38
2023-09-17T04:07:58.386Z,17.39
2023-09-17T04:09:01.141Z,17.39
2023-09-17T04:10:07.313Z,17.38
2023-09-17T04:11:16.767Z,17.37
2023-09-17T04:12:21.403Z,17.33
2023-09-17T04:13:24.473Z,17.25
2023-09-17T04:14:27.500Z,17.19
2023-09-17T04:15:30.999Z,17.23
2023-09-17T04:16:34.553Z,17.25
2023-09-17T04:17:37.798Z,17.15
2023-09-17T04:18:41.031Z,17.10
2023-09-17T04:19:44.129Z,16.86
2023-09-17T04:20:48.938Z,17.07
2023-09-17T04:21:51.825Z,17.09
2023-09-17T04:22:55.183Z,17.07
2023-09-17T04:23:58.061Z,16.77
2023-09-17T04:25:00.977Z,17.08
2023-09-17T04:26:04.092Z,17.08
2023-09-17T04:27:07.138Z,17.02
2023-09-17T04:28:10.375Z,16.97
2023-09-17T04:29:13.430Z,17.07
2023-09-17T04:30:20.037Z,17.10
2023-09-17T04:31:23.288Z,16.87
2023-09-17T04:32:26.344Z,17.09
2023-09-17T04:33:29.664Z,17.13
2023-09-17T04:34:33.388Z,17.14
2023-09-17T04:35:36.472Z,17.09
2023-09-17T04:36:39.346Z,17.11
2023-09-17T04:37:42.178Z,17.10
2023-09-17T04:38:45.360Z,17.09
2023-09-17T04:39:50.642Z,17.10
2023-09-17T04:40:53.405Z,17.12
2023-09-17T04:41:56.301Z,17.12
2023-09-17T04:42:59.386Z,17.19
2023-09-17T04:44:04.972Z,17.19
2023-09-17T04:45:11.167Z,17.22
2023-09-17T04:46:14.799Z,17.25
2023-09-17T04:47:18.277Z,17.28
2023-09-17T04:48:21.258Z,17.30
2023-09-17T04:49:24.436Z,17.31
2023-09-17T04:50:27.749Z,17.32
2023-09-17T04:51:30.717Z,17.32
2023-09-17T04:52:33.389Z,17.34
2023-09-17T04:53:36.267Z,17.36
2023-09-17T04:54:39.974Z,17.26
2023-09-17T04:55:42.975Z,17.38
2023-09-17T04:56:45.865Z,17.35
2023-09-17T04:57:48.545Z,17.31
2023-09-17T04:58:51.548Z,17.23
2023-09-17T04:59:55.690Z,17.27
2023-09-17T05:01:00.475Z,17.26
2023-09-17T05:02:03.637Z,17.29
2023-09-17T05:03:07.148Z,17.29
2023-09-17T05:04:10.913Z,17.29
2023-09-17T05:05:14.547Z,17.34
2023-09-17T05:06:17.518Z,17.32
2023-09-17T05:07:20.200Z,17.38
2023-09-17T05:08:23.614Z,17.37
2023-09-17T05:09:27.387Z,17.36
2023-09-17T05:10:30.417Z,17.34
2023-09-17T05:11:33.127Z,17.32
2023-09-17T05:12:35.893Z,17.38
2023-09-17T05:13:38.961Z,17.38
2023-09-17T05:14:43.854Z,17.40
2023-09-17T05:15:47.343Z,17.43
2023-09-17T05:16:50.288Z,17.44
2023-09-17T05:17:53.301Z,17.45
2023-09-17T05:18:55.993Z,17.52
2023-09-17T05:19:59.677Z,17.53
2023-09-17T05:21:02.955Z,17.58
2023-09-17T05:22:05.921Z,17.57
2023-09-17T05:23:09.140Z,17.49
2023-09-17T05:24:12.648Z,17.56
2023-09-17T05:25:15.923Z,17.52
2023-09-17T05:26:19.246Z,17.65
2023-09-17T05:27:21.967Z,17.66
2023-09-17T05:28:26.640Z,17.64
2023-09-17T05:29:29.716Z,17.73
2023-09-17T05:30:33.000Z,17.73
2023-09-17T05:31:36.298Z,17.81
2023-09-17T05:32:39.353Z,17.81
2023-09-17T05:33:42.384Z,17.86
2023-09-17T05:34:45.567Z,17.90
2023-09-17T05:35:49.141Z,17.91
2023-09-17T05:36:52.349Z,17.84
2023-09-17T05:37:55.216Z,17.89
2023-09-17T05:38:59.012Z,17.85
2023-09-17T05:40:02.244Z,17.95
2023-09-17T05:41:05.438Z,17.95
2023-09-17T05:42:09.022Z,17.86
2023-09-17T05:43:12.217Z,17.87
2023-09-17T05:44:15.202Z,17.84
2023-09-17T05:45:19.201Z,17.89
2023-09-17T05:46:22.297Z,17.69
2023-09-17T05:47:25.565Z,17.88
2023-09-17T05:48:29.381Z,17.97
2023-09-17T05:49:32.373Z,18.01
2023-09-17T05:50:35.598Z,18.02
2023-09-17T05:51:38.544Z,18.03
2023-09-17T05:52:41.831Z,18.04
2023-09-17T05:53:44.865Z,18.12
2023-09-17T05:54:48.040Z,18.17
2023-09-17T05:55:51.684Z,18.26
2023-09-17T05:56:55.210Z,18.30
2023-09-17T05:57:58.772Z,18.26
2023-09-17T05:59:02.033Z,18.31
2023-09-17T06:00:05.783Z,18.16
2023-09-17T06:01:17.288Z,18.54
2023-09-17T06:02:20.954Z,18.54
2023-09-17T06:03:24.654Z,18.50
2023-09-17T06:04:28.923Z,18.62
2023-09-17T06:05:31.704Z,18.54
2023-09-17T06:06:34.390Z,18.59
2023-09-17T06:07:37.680Z,18.35
2023-09-17T06:08:40.695Z,18.58
2023-09-17T06:09:43.375Z,18.62
2023-09-17T06:10:46.507Z,18.76
2023-09-17T06:11:51.443Z,18.88
2023-09-17T06:12:54.797Z,18.96
2023-09-17T06:13:58.070Z,18.86
2023-09-17T06:15:02.449Z,18.67
2023-09-17T06:16:05.426Z,18.65
2023-09-17T06:17:08.503Z,18.74
2023-09-17T06:18:11.740Z,18.74
2023-09-17T06:19:15.935Z,18.21
2023-09-17T06:20:19.656Z,18.67
2023-09-17T06:21:22.785Z,18.63
2023-09-17T06:22:27.059Z,18.48
2023-09-17T06:23:30.037Z,18.67
2023-09-17T06:24:33.502Z,18.69
2023-09-17T06:25:36.454Z,18.85
2023-09-17T06:26:39.095Z,18.76
2023-09-17T06:27:41.817Z,18.75
2023-09-17T06:28:45.099Z,18.72
2023-09-17T06:29:48.017Z,18.75
2023-09-17T06:30:51.056Z,18.83
2023-09-17T06:31:53.885Z,18.83
2023-09-17T06:32:57.197Z,18.82
2023-09-17T06:34:00.861Z,18.86
2023-09-17T06:35:04.351Z,18.89
2023-09-17T06:36:07.286Z,18.92
2023-09-17T06:37:11.184Z,18.93
2023-09-17T06:38:14.099Z,18.96
2023-09-17T06:39:18.515Z,18.92
2023-09-17T06:40:21.587Z,18.99
2023-09-17T06:41:25.013Z,19.02
2023-09-17T06:42:27.833Z,18.96
2023-09-17T06:43:32.076Z,19.09
2023-09-17T06:44:35.444Z,19.11
2023-09-17T06:45:38.406Z,19.17
2023-09-17T06:46:41.267Z,19.16
2023-09-17T06:47:44.439Z,19.22
2023-09-17T06:48:47.417Z,19.28
2023-09-17T06:49:50.881Z,19.23
2023-09-17T06:50:53.891Z,19.32
2023-09-17T06:51:56.909Z,19.35
2023-09-17T06:52:59.754Z,19.33
2023-09-17T06:54:02.767Z,19.34
2023-09-17T06:55:06.091Z,19.33
2023-09-17T06:56:12.192Z,19.38
2023-09-17T06:57:15.086Z,19.38
2023-09-17T06:58:18.123Z,19.47
2023-09-17T06:59:21.036Z,19.26
2023-09-17T07:00:24.219Z,19.40
2023-09-17T07:01:27.097Z,19.57
2023-09-17T07:02:30.084Z,19.56
2023-09-17T07:03:33.576Z,19.56
2023-09-17T07:04:36.255Z,19.51
2023-09-17T07:05:39.552Z,19.64
2023-09-17T07:06:42.601Z,19.62
2023-09-17T07:07:45.545Z,19.36
2023-09-17T07:08:48.678Z,19.62
2023-09-17T07:09:51.354Z,19.61
2023-09-17T07:10:54.634Z,19.66
2023-09-17T07:11:57.534Z,19.72
2023-09-17T07:13:00.519Z,19.69
2023-09-17T07:14:10.555Z,19.64
2023-09-17T07:15:14.092Z,19.69
2023-09-17T07:16:19.232Z,19.66
2023-09-17T07:17:22.232Z,19.65
2023-09-17T07:18:33.013Z,19.65
2023-09-17T07:19:36.088Z,19.65
2023-09-17T07:20:38.936Z,19.61
2023-09-17T07:21:42.234Z,19.62
2023-09-17T07:22:49.475Z,19.65
2023-09-17T07:23:53.542Z,19.66
2023-09-17T07:24:59.989Z,19.66
2023-09-17T07:26:04.994Z,19.69
2023-09-17T07:27:08.212Z,19.63
2023-09-17T07:28:11.166Z,19.48
2023-09-17T07:29:14.099Z,19.53
2023-09-17T07:30:18.480Z,19.57
2023-09-17T07:31:21.453Z,19.43
2023-09-17T07:32:30.790Z,19.56
2023-09-17T07:33:33.446Z,19.55
2023-09-17T07:34:36.742Z,19.52
2023-09-17T07:35:40.432Z,19.47
2023-09-17T07:36:43.146Z,19.45
2023-09-17T07:37:51.300Z,19.60
2023-09-17T07:38:54.744Z,19.66
2023-09-17T07:40:00.334Z,19.70
2023-09-17T07:41:03.608Z,19.51
2023-09-17T07:42:06.915Z,19.49
2023-09-17T07:43:10.847Z,19.51
2023-09-17T07:44:13.813Z,19.51
2023-09-17T07:45:16.618Z,19.54
2023-09-17T07:46:19.591Z,19.49
2023-09-17T07:47:22.674Z,19.46
2023-09-17T07:48:26.321Z,19.50
2023-09-17T07:49:30.423Z,19.49
2023-09-17T07:50:33.371Z,19.42
2023-09-17T07:51:36.225Z,19.41
2023-09-17T07:52:40.996Z,19.39
2023-09-17T07:53:44.454Z,19.40
2023-09-17T07:54:47.398Z,19.49
2023-09-17T07:55:50.335Z,19.51
2023-09-17T07:56:53.009Z,19.54
2023-09-17T07:57:58.863Z,19.58
2023-09-17T07:59:01.919Z,19.60
2023-09-17T08:00:07.329Z,19.61
2023-09-17T08:01:16.357Z,19.62
2023-09-17T08:02:19.574Z,19.64
2023-09-17T08:03:22.593Z,19.70
2023-09-17T08:04:26.775Z,19.69
2023-09-17T08:05:29.596Z,19.76
2023-09-17T08:06:35.927Z,19.80
2023-09-17T08:07:41.554Z,19.80
2023-09-17T08:08:47.307Z,19.79
2023-09-17T08:09:50.444Z,19.84
2023-09-17T08:10:54.033Z,19.86
2023-09-17T08:11:57.074Z,19.87
2023-09-17T08:13:00.177Z,19.99
2023-09-17T08:14:03.055Z,20.05
2023-09-17T08:15:06.169Z,20.11
2023-09-17T08:16:09.097Z,20.11
2023-09-17T08:17:11.751Z,20.18
2023-09-17T08:18:15.002Z,20.20
2023-09-17T08:19:17.799Z,20.24
2023-09-17T08:20:21.230Z,20.37
2023-09-17T08:21:25.088Z,20.43
2023-09-17T08:22:28.577Z,20.53
2023-09-17T08:23:32.218Z,20.59
2023-09-17T08:24:35.184Z,20.59
2023-09-17T08:25:38.247Z,20.65
2023-09-17T08:26:41.372Z,20.75
2023-09-17T08:27:44.595Z,20.65
2023-09-17T08:28:50.605Z,20.61
2023-09-17T08:29:53.557Z,20.71
2023-09-17T08:30:56.486Z,20.68
2023-09-17T08:31:59.484Z,20.72
2023-09-17T08:33:02.633Z,20.79
2023-09-17T08:34:05.915Z,20.84
2023-09-17T08:35:09.281Z,20.72
2023-09-17T08:36:12.985Z,20.91
2023-09-17T08:37:15.635Z,20.81
2023-09-17T08:38:19.944Z,20.96
2023-09-17T08:39:23.231Z,20.95
2023-09-17T08:40:31.295Z,20.96
2023-09-17T08:41:39.900Z,20.98
2023-09-17T08:42:43.825Z,20.84
2023-09-17T08:43:47.688Z,20.91
2023-09-17T08:44:52.097Z,21.01
2023-09-17T08:45:55.995Z,21.09
2023-09-17T08:47:01.154Z,21.09
2023-09-17T08:48:04.094Z,21.09
2023-09-17T08:49:06.879Z,21.06
2023-09-17T08:50:10.628Z,21.02
2023-09-17T08:51:16.841Z,21.07
2023-09-17T08:52:21.967Z,21.10
2023-09-17T08:53:32.223Z,21.12
2023-09-17T08:54:40.722Z,21.16
2023-09-17T08:55:46.958Z,21.14
2023-09-17T08:56:53.725Z,21.08
2023-09-17T08:58:19.002Z,20.91
2023-09-17T08:59:30.773Z,21.09
2023-09-17T09:00:37.063Z,21.13
2023-09-17T09:01:43.957Z,21.13
2023-09-17T09:02:57.268Z,21.17
2023-09-17T09:04:01.897Z,21.15
2023-09-17T09:05:05.330Z,21.14
2023-09-17T09:06:10.682Z,21.20
2023-09-17T09:07:16.210Z,21.21
2023-09-17T09:08:19.195Z,21.26
2023-09-17T09:09:25.051Z,21.28
2023-09-17T09:10:28.283Z,21.33
2023-09-17T09:11:32.444Z,21.33
2023-09-17T09:12:37.900Z,21.37
2023-09-17T09:13:42.541Z,21.25
2023-09-17T09:14:46.153Z,21.42
2023-09-17T09:15:49.461Z,21.42
2023-09-17T09:16:52.414Z,21.33
2023-09-17T09:17:56.601Z,21.41
2023-09-17T09:19:01.071Z,21.41
2023-09-17T09:20:07.407Z,21.39
2023-09-17T09:21:11.709Z,21.47
2023-09-17T09:22:14.602Z,21.49
2023-09-17T09:23:17.928Z,21.53
2023-09-17T09:24:24.773Z,21.56
2023-09-17T09:25:29.939Z,21.59
2023-09-17T09:26:35.077Z,21.64
2023-09-17T09:27:38.835Z,21.65
2023-09-17T09:28:41.810Z,21.57
2023-09-17T09:29:44.949Z,21.71
2023-09-17T09:30:47.832Z,21.68
2023-09-17T09:31:50.779Z,21.71
2023-09-17T09:32:53.786Z,21.71
2023-09-17T09:34:00.800Z,21.78
2023-09-17T09:35:04.888Z,21.83
2023-09-17T09:36:07.759Z,21.78
2023-09-17T09:37:11.610Z,21.86
2023-09-17T09:38:14.470Z,21.92
2023-09-17T09:39:17.600Z,22.00
2023-09-17T09:40:25.533Z,21.94
2023-09-17T09:41:30.565Z,21.95
2023-09-17T09:42:33.669Z,22.00
2023-09-17T09:43:36.666Z,21.97
2023-09-17T09:44:39.624Z,22.01
2023-09-17T09:45:43.304Z,22.06
2023-09-17T09:46:46.416Z,22.17
2023-09-17T09:47:52.474Z,22.22
2023-09-17T09:49:01.300Z,22.22
2023-09-17T09:50:04.780Z,22.17
2023-09-17T09:51:07.770Z,22.15
2023-09-17T09:52:14.821Z,22.22
2023-09-17T09:53:17.674Z,22.12
2023-09-17T09:54:20.392Z,22.18
2023-09-17T09:55:25.774Z,22.26
2023-09-17T09:56:29.585Z,22.32
2023-09-17T09:57:34.176Z,22.00
2023-09-17T09:58:37.534Z,22.37
2023-09-17T09:59:44.116Z,22.31
2023-09-17T10:00:49.976Z,22.39
2023-09-17T10:01:53.539Z,22.37
2023-09-17T10:02:57.780Z,22.44
2023-09-17T10:04:00.753Z,22.35
2023-09-17T10:05:05.875Z,22.24
2023-09-17T10:06:08.788Z,22.19
2023-09-17T10:07:12.307Z,22.37
2023-09-17T10:08:18.359Z,22.27
2023-09-17T10:09:21.678Z,22.28
2023-09-17T10:10:25.277Z,22.11
2023-09-17T10:11:28.200Z,22.17
2023-09-17T10:12:31.954Z,22.40
2023-09-17T10:13:35.391Z,22.47
2023-09-17T10:14:39.392Z,22.29
2023-09-17T10:15:45.191Z,22.34
2023-09-17T10:16:50.246Z,22.20
2023-09-17T10:17:54.986Z,22.34
2023-09-17T10:18:58.411Z,22.31
2023-09-17T10:20:03.125Z,22.33
2023-09-17T10:21:06.989Z,22.41
2023-09-17T10:22:12.007Z,22.50
2023-09-17T10:23:17.261Z,22.51
2023-09-17T10:24:20.310Z,22.56
2023-09-17T10:25:24.641Z,22.56
2023-09-17T10:26:33.920Z,22.54
2023-09-17T10:27:40.577Z,22.38
2023-09-17T10:28:45.512Z,22.55
2023-09-17T10:29:52.060Z,22.51
2023-09-17T10:30:57.736Z,22.40
2023-09-17T10:32:03.171Z,22.53
2023-09-17T10:33:08.985Z,22.55
2023-09-17T10:34:14.347Z,22.63
2023-09-17T10:35:17.325Z,22.65
2023-09-17T10:36:32.876Z,22.66
2023-09-17T10:37:36.519Z,22.74
2023-09-17T10:38:53.215Z,22.69
2023-09-17T10:39:58.013Z,22.32
2023-09-17T10:41:02.005Z,22.73
2023-09-17T10:42:07.618Z,22.69
2023-09-17T10:43:12.876Z,22.79
2023-09-17T10:44:19.324Z,22.64
2023-09-17T10:45:23.834Z,22.63
2023-09-17T10:46:28.956Z,22.72
2023-09-17T10:47:34.741Z,22.67
2023-09-17T10:48:40.401Z,22.58
2023-09-17T10:49:43.950Z,22.66
2023-09-17T10:50:48.289Z,22.63
2023-09-17T10:51:52.682Z,22.73
2023-09-17T10:52:55.648Z,22.77
2023-09-17T10:53:58.391Z,22.76
2023-09-17T10:55:01.400Z,22.78
2023-09-17T10:56:09.391Z,22.57
2023-09-17T10:57:28.016Z,22.86
2023-09-17T10:58:50.521Z,22.75
2023-09-17T10:59:55.262Z,22.87
2023-09-17T11:01:00.940Z,22.84
2023-09-17T11:02:05.665Z,22.72
2023-09-17T11:03:10.187Z,22.73
2023-09-17T11:04:18.257Z,22.81
2023-09-17T11:05:25.784Z,22.82
2023-09-17T11:06:30.731Z,22.93
2023-09-17T11:07:34.863Z,22.96
2023-09-17T11:08:37.892Z,22.58
2023-09-17T11:09:42.756Z,23.04
2023-09-17T11:10:46.001Z,23.08
2023-09-17T11:11:48.950Z,23.17
2023-09-17T11:12:52.854Z,23.13
2023-09-17T11:13:56.157Z,23.13
2023-09-17T11:14:59.886Z,23.21
2023-09-17T11:16:03.006Z,23.22
2023-09-17T11:17:10.329Z,23.36
2023-09-17T11:18:13.847Z,23.31
2023-09-17T11:19:19.929Z,23.37
2023-09-17T11:20:22.722Z,23.41
2023-09-17T11:21:28.089Z,23.52
2023-09-17T11:22:37.986Z,23.47
2023-09-17T11:23:48.271Z,23.47
2023-09-17T11:24:51.878Z,23.64
2023-09-17T11:25:56.230Z,23.55
2023-09-17T11:27:02.519Z,23.69
2023-09-17T11:28:16.576Z,23.74
2023-09-17T11:29:20.241Z,23.85
2023-09-17T11:30:26.445Z,23.92
2023-09-17T11:31:29.589Z,23.73
2023-09-17T11:32:32.773Z,24.03
2023-09-17T11:33:38.154Z,24.08
2023-09-17T11:34:46.054Z,24.15
2023-09-17T11:35:49.474Z,24.23
2023-09-17T11:36:54.181Z,24.25
2023-09-17T11:37:58.256Z,23.29
2023-09-17T11:39:08.653Z,24.16
2023-09-17T11:40:13.892Z,24.26
2023-09-17T11:41:17.689Z,24.31
2023-09-17T11:42:24.488Z,24.17
2023-09-17T11:43:27.777Z,24.53
2023-09-17T11:44:33.838Z,24.65
2023-09-17T11:45:40.206Z,24.66
2023-09-17T11:46:44.651Z,24.61
2023-09-17T11:47:47.861Z,24.53
2023-09-17T11:48:51.663Z,24.60
2023-09-17T11:49:55.358Z,24.53
2023-09-17T11:51:25.636Z,24.83
2023-09-17T11:52:29.293Z,25.11
2023-09-17T11:53:33.115Z,25.27
2023-09-17T11:54:42.031Z,25.48
2023-09-17T11:55:50.990Z,25.46
2023-09-17T11:56:56.379Z,25.62
2023-09-17T11:58:23.897Z,25.63
2023-09-17T11:59:28.300Z,25.70
2023-09-17T12:00:32.157Z,25.98
2023-09-17T12:01:56.113Z,26.28
2023-09-17T12:03:00.010Z,26.16
2023-09-17T12:04:08.857Z,26.24
2023-09-17T12:05:12.430Z,26.28
2023-09-17T12:06:18.553Z,26.47
2023-09-17T12:07:22.464Z,26.27
2023-09-17T12:08:25.942Z,25.68
2023-09-17T12:09:40.098Z,25.98
2023-09-17T12:10:51.435Z,26.06
2023-09-17T12:11:57.617Z,26.36
2023-09-17T12:13:01.832Z,26.60
2023-09-17T12:14:08.023Z,26.81
2023-09-17T12:15:11.955Z,27.01
2023-09-17T12:16:17.490Z,27.23
2023-09-17T12:17:23.016Z,27.01
2023-09-17T12:18:27.181Z,27.09
2023-09-17T12:19:31.621Z,27.28
2023-09-17T12:20:58.107Z,27.07
2023-09-17T12:22:01.408Z,27.20
2023-09-17T12:23:08.838Z,27.17
2023-09-17T12:25:01.517Z,27.27
2023-09-17T12:26:05.824Z,27.45
2023-09-17T12:27:26.504Z,27.52
2023-09-17T12:28:29.832Z,27.40
2023-09-17T12:29:34.614Z,27.35
2023-09-17T12:30:38.341Z,26.37
2023-09-17T12:31:42.623Z,26.87
2023-09-17T12:32:46.332Z,26.84
2023-09-17T12:33:50.156Z,27.02
2023-09-17T12:34:56.319Z,26.72
2023-09-17T12:35:59.825Z,26.67
2023-09-17T12:37:04.333Z,26.57
2023-09-17T12:38:08.335Z,27.05
2023-09-17T12:39:12.477Z,26.82
2023-09-17T12:40:16.059Z,26.94
2023-09-17T12:41:31.924Z,26.97
2023-09-17T12:42:42.744Z,26.83
2023-09-17T12:43:47.667Z,27.00
2023-09-17T12:44:53.834Z,26.75
2023-09-17T12:45:57.179Z,26.73
2023-09-17T12:47:01.245Z,26.61
2023-09-17T12:48:06.240Z,26.72
2023-09-17T12:49:09.673Z,26.47
2023-09-17T12:50:13.812Z,26.49
2023-09-17T12:51:18.703Z,26.81
2023-09-17T12:52:22.185Z,27.04
2023-09-17T12:53:25.936Z,27.00
2023-09-17T12:54:29.720Z,26.94
2023-09-17T12:55:33.088Z,26.86
2023-09-17T12:56:38.553Z,26.44
2023-09-17T12:57:41.993Z,26.60
2023-09-17T12:58:51.070Z,26.60
2023-09-17T12:59:55.421Z,26.15
2023-09-17T13:01:10.907Z,25.87
2023-09-17T13:02:15.596Z,26.24
2023-09-17T13:03:19.945Z,26.00
2023-09-17T13:04:36.107Z,26.27
2023-09-17T13:05:40.103Z,26.19
2023-09-17T13:06:43.558Z,26.38
2023-09-17T13:07:48.427Z,26.37
2023-09-17T13:08:52.703Z,26.17
2023-09-17T13:10:02.127Z,26.43
2023-09-17T13:11:05.887Z,26.51
2023-09-17T13:12:09.909Z,26.48
2023-09-17T13:13:14.691Z,26.61
2023-09-17T13:14:18.548Z,26.63
2023-09-17T13:15:22.597Z,26.27
2023-09-17T13:16:26.182Z,26.39
2023-09-17T13:17:30.515Z,26.43
2023-09-17T13:18:34.940Z,26.03
2023-09-17T13:19:39.221Z,26.32
2023-09-17T13:20:43.086Z,26.37
2023-09-17T13:21:47.782Z,26.25
2023-09-17T13:22:52.158Z,25.93
2023-09-17T13:24:02.045Z,26.39
2023-09-17T13:25:08.051Z,26.43
2023-09-17T13:26:11.744Z,26.48
2023-09-17T13:27:19.886Z,26.41
2023-09-17T13:28:24.750Z,26.24
2023-09-17T13:29:40.966Z,25.96
2023-09-17T13:30:45.288Z,26.02
2023-09-17T13:31:54.632Z,26.01
2023-09-17T13:33:00.247Z,26.19
2023-09-17T13:34:04.642Z,26.11
2023-09-17T13:35:12.237Z,26.18
2023-09-17T13:36:18.739Z,26.27
2023-09-17T13:37:22.735Z,26.38
2023-09-17T13:38:27.299Z,26.26
2023-09-17T13:39:33.850Z,26.32
2023-09-17T13:40:44.752Z,26.39
2023-09-17T13:41:48.789Z,26.35
2023-09-17T13:42:52.603Z,26.40
2023-09-17T13:44:00.319Z,26.38
2023-09-17T13:45:08.048Z,26.45
2023-09-17T13:46:17.337Z,26.34
2023-09-17T13:47:20.300Z,26.28
2023-09-17T13:48:24.055Z,26.23
2023-09-17T13:49:27.959Z,26.09
2023-09-17T13:50:31.989Z,26.00
2023-09-17T13:51:35.888Z,26.02
2023-09-17T13:52:39.826Z,25.84
2023-09-17T13:53:43.436Z,25.88